sensor_id;sensor_type;location;lat;lon;timestamp;pressure;altitude;pressure_sealevel;temperature;humidity
9277;BME280;4676;42.678;23.244;2023-03-15T00:01:44;93128.59;;;4.94;72.26
9277;BME280;4676;42.678;23.244;2023-03-15T00:04:11;93127.41;;;4.79;75.05
9277;BME280;4676;42.678;23.244;2023-03-15T00:06:38;93120.97;;;4.72;76.88
9277;BME280;4676;42.678;23.244;2023-03-15T00:09:05;93118.53;;;4.71;76.43
9277;BME280;4676;42.678;23.244;2023-03-15T00:11:32;93118.53;;;4.71;77.03
9277;BME280;4676;42.678;23.244;2023-03-15T00:13:58;93126.75;;;4.99;69.83
9277;BME280;4676;42.678;23.244;2023-03-15T00:16:28;93128.19;;;5.06;69.35
9277;BME280;4676;42.678;23.244;2023-03-15T00:18:57;93121.56;;;5.03;70.32
9277;BME280;4676;42.678;23.244;2023-03-15T00:21:23;93117.53;;;5.23;67.41
9277;BME280;4676;42.678;23.244;2023-03-15T00:23:50;93108.13;;;5.28;67.65
9277;BME280;4676;42.678;23.244;2023-03-15T00:26:17;93112.28;;;5.29;67.24
9277;BME280;4676;42.678;23.244;2023-03-15T00:28:44;93109.94;;;5.24;67.54
9277;BME280;4676;42.678;23.244;2023-03-15T00:31:14;93109.72;;;5.30;67.54
9277;BME280;4676;42.678;23.244;2023-03-15T00:33:43;93111.16;;;5.37;68.09
9277;BME280;4676;42.678;23.244;2023-03-15T00:36:10;93112.28;;;5.52;66.71
9277;BME280;4676;42.678;23.244;2023-03-15T00:38:38;93058.22;;;5.20;65.73
9277;BME280;4676;42.678;23.244;2023-03-15T00:41:06;93103.75;;;5.56;66.17
9277;BME280;4676;42.678;23.244;2023-03-15T00:43:33;93101.16;;;5.59;67.68
9277;BME280;4676;42.678;23.244;2023-03-15T00:46:00;93103.53;;;5.62;66.77
9277;BME280;4676;42.678;23.244;2023-03-15T00:48:27;93091.31;;;5.75;64.94
9277;BME280;4676;42.678;23.244;2023-03-15T00:51:03;93050.28;;;5.52;64.74
9277;BME280;4676;42.678;23.244;2023-03-15T00:53:30;93083.94;;;5.70;65.62
9277;BME280;4676;42.678;23.244;2023-03-15T00:56:02;93066.31;;;5.72;64.86
9277;BME280;4676;42.678;23.244;2023-03-15T00:58:29;93075.13;;;5.82;65.51
9277;BME280;4676;42.678;23.244;2023-03-15T01:00:56;93070.78;;;5.87;65.15
9277;BME280;4676;42.678;23.244;2023-03-15T01:03:23;93073.44;;;5.82;64.88
9277;BME280;4676;42.678;23.244;2023-03-15T01:05:49;93076.63;;;5.87;64.41
9277;BME280;4676;42.678;23.244;2023-03-15T01:08:18;93072.75;;;5.79;65.36
9277;BME280;4676;42.678;23.244;2023-03-15T01:10:44;93067.59;;;5.82;65.67
9277;BME280;4676;42.678;23.244;2023-03-15T01:13:11;93075.13;;;5.82;65.61
9277;BME280;4676;42.678;23.244;2023-03-15T01:15:38;93067.38;;;5.88;64.65
9277;BME280;4676;42.678;23.244;2023-03-15T01:18:04;93059.50;;;5.97;64.92
9277;BME280;4676;42.678;23.244;2023-03-15T01:20:31;93060.13;;;5.80;67.32
9277;BME280;4676;42.678;23.244;2023-03-15T01:22:58;93047.16;;;5.69;71.92
9277;BME280;4676;42.678;23.244;2023-03-15T01:25:26;93044.22;;;5.58;75.05
9277;BME280;4676;42.678;23.244;2023-03-15T01:27:52;93045.94;;;5.56;76.51
9277;BME280;4676;42.678;23.244;2023-03-15T01:30:19;93045.66;;;5.42;77.62
9277;BME280;4676;42.678;23.244;2023-03-15T01:32:46;93045.19;;;5.32;77.42
9277;BME280;4676;42.678;23.244;2023-03-15T01:35:13;93035.38;;;5.26;79.14
9277;BME280;4676;42.678;23.244;2023-03-15T01:37:39;93042.25;;;5.21;80.00
9277;BME280;4676;42.678;23.244;2023-03-15T01:40:11;93036.34;;;5.22;82.12
9277;BME280;4676;42.678;23.244;2023-03-15T01:42:52;93032.38;;;5.17;83.37
9277;BME280;4676;42.678;23.244;2023-03-15T01:48:26;93031.09;;;5.07;84.38
9277;BME280;4676;42.678;23.244;2023-03-15T01:50:53;93031.13;;;5.05;85.38
9277;BME280;4676;42.678;23.244;2023-03-15T01:53:21;93018.47;;;5.08;83.54
9277;BME280;4676;42.678;23.244;2023-03-15T01:55:50;93023.00;;;4.98;83.68
9277;BME280;4676;42.678;23.244;2023-03-15T01:58:19;93012.72;;;5.04;84.31
9277;BME280;4676;42.678;23.244;2023-03-15T02:00:50;93010.50;;;4.97;83.34
9277;BME280;4676;42.678;23.244;2023-03-15T02:03:20;93001.34;;;4.96;82.47
9277;BME280;4676;42.678;23.244;2023-03-15T02:05:52;92999.03;;;4.90;83.06
9277;BME280;4676;42.678;23.244;2023-03-15T02:08:21;92996.59;;;4.88;83.22
9277;BME280;4676;42.678;23.244;2023-03-15T02:10:51;92994.28;;;4.82;84.03
9277;BME280;4676;42.678;23.244;2023-03-15T02:13:21;92994.53;;;4.76;84.82
9277;BME280;4676;42.678;23.244;2023-03-15T02:15:49;92987.00;;;4.76;85.29
9277;BME280;4676;42.678;23.244;2023-03-15T02:18:18;92994.63;;;4.73;85.99
9277;BME280;4676;42.678;23.244;2023-03-15T02:20:49;92986.44;;;4.68;87.86
9277;BME280;4676;42.678;23.244;2023-03-15T02:23:19;92984.81;;;4.90;86.64
9277;BME280;4676;42.678;23.244;2023-03-15T02:25:53;92987.31;;;4.90;81.84
9277;BME280;4676;42.678;23.244;2023-03-15T02:28:25;92987.78;;;4.78;82.62
9277;BME280;4676;42.678;23.244;2023-03-15T02:30:52;92983.13;;;4.68;84.80
9277;BME280;4676;42.678;23.244;2023-03-15T02:33:21;92975.53;;;4.69;86.86
9277;BME280;4676;42.678;23.244;2023-03-15T02:35:50;92982.78;;;4.77;83.64
9277;BME280;4676;42.678;23.244;2023-03-15T02:38:16;92980.31;;;4.75;83.10
9277;BME280;4676;42.678;23.244;2023-03-15T02:40:45;92983.63;;;4.77;84.18
9277;BME280;4676;42.678;23.244;2023-03-15T02:43:15;92975.66;;;4.66;85.22
9277;BME280;4676;42.678;23.244;2023-03-15T02:45:44;92973.38;;;4.60;88.14
9277;BME280;4676;42.678;23.244;2023-03-15T02:48:12;92967.75;;;4.53;89.42
9277;BME280;4676;42.678;23.244;2023-03-15T02:50:39;92972.91;;;4.49;90.24
9277;BME280;4676;42.678;23.244;2023-03-15T02:53:05;92970.63;;;4.43;90.09
9277;BME280;4676;42.678;23.244;2023-03-15T02:55:32;92967.34;;;4.41;92.13
9277;BME280;4676;42.678;23.244;2023-03-15T02:58:00;92967.22;;;4.21;93.95
9277;BME280;4676;42.678;23.244;2023-03-15T03:00:27;92966.44;;;4.19;94.59
9277;BME280;4676;42.678;23.244;2023-03-15T03:02:55;92960.41;;;4.24;94.21
9277;BME280;4676;42.678;23.244;2023-03-15T03:05:22;92952.38;;;4.15;94.38
9277;BME280;4676;42.678;23.244;2023-03-15T03:07:49;92948.50;;;4.06;95.76
9277;BME280;4676;42.678;23.244;2023-03-15T03:10:17;92937.72;;;4.04;97.75
9277;BME280;4676;42.678;23.244;2023-03-15T03:12:44;92945.50;;;3.96;98.10
9277;BME280;4676;42.678;23.244;2023-03-15T03:15:11;92952.16;;;3.97;98.66
9277;BME280;4676;42.678;23.244;2023-03-15T03:17:38;92947.91;;;3.98;97.87
9277;BME280;4676;42.678;23.244;2023-03-15T03:20:08;92948.84;;;3.95;98.23
9277;BME280;4676;42.678;23.244;2023-03-15T03:22:38;92937.34;;;3.90;98.45
9277;BME280;4676;42.678;23.244;2023-03-15T03:25:07;92940.22;;;4.04;98.83
9277;BME280;4676;42.678;23.244;2023-03-15T03:27:35;92936.94;;;4.02;98.92
9277;BME280;4676;42.678;23.244;2023-03-15T03:30:03;92941.91;;;4.03;99.07
9277;BME280;4676;42.678;23.244;2023-03-15T03:32:29;92930.81;;;4.11;100.00
9277;BME280;4676;42.678;23.244;2023-03-15T03:34:56;92927.78;;;4.01;100.00
9277;BME280;4676;42.678;23.244;2023-03-15T03:37:24;92932.81;;;4.01;100.00
9277;BME280;4676;42.678;23.244;2023-03-15T03:39:51;92932.81;;;4.01;100.00
9277;BME280;4676;42.678;23.244;2023-03-15T03:42:18;92922.56;;;4.07;100.00
9277;BME280;4676;42.678;23.244;2023-03-15T03:44:45;92927.44;;;4.35;99.98
9277;BME280;4676;42.678;23.244;2023-03-15T03:47:11;92912.50;;;4.32;97.64
9277;BME280;4676;42.678;23.244;2023-03-15T03:49:38;92919.44;;;4.25;97.41
9277;BME280;4676;42.678;23.244;2023-03-15T03:52:05;92920.84;;;4.32;96.68
9277;BME280;4676;42.678;23.244;2023-03-15T03:54:33;92913.41;;;4.29;97.73
9277;BME280;4676;42.678;23.244;2023-03-15T03:57:00;92906.78;;;4.28;98.82
9277;BME280;4676;42.678;23.244;2023-03-15T03:59:26;92903.56;;;4.25;100.00
9277;BME280;4676;42.678;23.244;2023-03-15T04:01:53;92895.06;;;4.29;100.00
9277;BME280;4676;42.678;23.244;2023-03-15T04:04:20;92900.22;;;4.47;100.00
9277;BME280;4676;42.678;23.244;2023-03-15T04:06:47;92902.91;;;4.43;100.00
9277;BME280;4676;42.678;23.244;2023-03-15T04:09:15;92899.97;;;4.32;100.00
9277;BME280;4676;42.678;23.244;2023-03-15T04:11:43;92904.78;;;4.36;100.00
9277;BME280;4676;42.678;23.244;2023-03-15T04:14:10;92892.88;;;4.43;100.00
9277;BME280;4676;42.678;23.244;2023-03-15T04:16:37;92895.53;;;4.38;99.36
9277;BME280;4676;42.678;23.244;2023-03-15T04:19:04;92905.69;;;4.35;99.56
9277;BME280;4676;42.678;23.244;2023-03-15T04:21:31;92905.72;;;4.34;100.00
9277;BME280;4676;42.678;23.244;2023-03-15T04:23:58;92899.75;;;4.38;100.00
9277;BME280;4676;42.678;23.244;2023-03-15T04:26:25;92897.97;;;4.40;100.00
9277;BME280;4676;42.678;23.244;2023-03-15T04:28:54;92897.72;;;4.47;100.00
9277;BME280;4676;42.678;23.244;2023-03-15T04:31:21;92907.81;;;4.46;100.00
9277;BME280;4676;42.678;23.244;2023-03-15T04:33:51;92895.03;;;4.52;99.61
9277;BME280;4676;42.678;23.244;2023-03-15T04:36:18;92893.84;;;4.62;98.75
9277;BME280;4676;42.678;23.244;2023-03-15T04:38:44;92893.00;;;4.62;93.95
9277;BME280;4676;42.678;23.244;2023-03-15T04:41:11;92878.50;;;4.70;89.22
9277;BME280;4676;42.678;23.244;2023-03-15T04:43:38;92895.13;;;4.72;87.46
9277;BME280;4676;42.678;23.244;2023-03-15T04:46:07;92894.63;;;4.64;88.85
9277;BME280;4676;42.678;23.244;2023-03-15T04:48:34;92892.19;;;4.61;90.52
9277;BME280;4676;42.678;23.244;2023-03-15T04:51:00;92890.69;;;4.57;93.67
9277;BME280;4676;42.678;23.244;2023-03-15T04:53:27;92883.97;;;4.58;95.31
9277;BME280;4676;42.678;23.244;2023-03-15T04:55:55;92883.91;;;4.59;95.96
9277;BME280;4676;42.678;23.244;2023-03-15T04:58:21;92879.88;;;4.55;99.46
9277;BME280;4676;42.678;23.244;2023-03-15T05:00:48;92876.63;;;4.53;99.21
9277;BME280;4676;42.678;23.244;2023-03-15T05:03:16;92878.31;;;4.52;100.00
9277;BME280;4676;42.678;23.244;2023-03-15T05:05:43;92883.25;;;4.54;100.00
9277;BME280;4676;42.678;23.244;2023-03-15T05:08:10;92880.53;;;4.60;100.00
9277;BME280;4676;42.678;23.244;2023-03-15T05:10:37;92884.66;;;4.61;98.14
9277;BME280;4676;42.678;23.244;2023-03-15T05:13:03;92887.88;;;4.65;96.46
9277;BME280;4676;42.678;23.244;2023-03-15T05:15:30;92889.78;;;4.81;93.44
9277;BME280;4676;42.678;23.244;2023-03-15T05:17:57;92885.38;;;4.86;94.02
9277;BME280;4676;42.678;23.244;2023-03-15T05:20:25;92892.50;;;4.75;98.70
9277;BME280;4676;42.678;23.244;2023-03-15T05:22:51;92888.50;;;4.71;100.00
9277;BME280;4676;42.678;23.244;2023-03-15T05:25:18;92887.84;;;4.66;100.00
9277;BME280;4676;42.678;23.244;2023-03-15T05:27:45;92873.66;;;4.65;100.00
9277;BME280;4676;42.678;23.244;2023-03-15T05:30:12;92882.53;;;4.74;100.00
9277;BME280;4676;42.678;23.244;2023-03-15T05:32:40;92875.53;;;4.82;100.00
9277;BME280;4676;42.678;23.244;2023-03-15T05:35:09;92888.97;;;4.81;100.00
9277;BME280;4676;42.678;23.244;2023-03-15T05:37:38;92879.50;;;4.87;100.00
9277;BME280;4676;42.678;23.244;2023-03-15T05:40:06;92877.28;;;4.80;99.58
9277;BME280;4676;42.678;23.244;2023-03-15T05:42:34;92876.00;;;4.91;100.00
9277;BME280;4676;42.678;23.244;2023-03-15T05:45:01;92845.03;;;4.71;100.00
9277;BME280;4676;42.678;23.244;2023-03-15T05:47:27;92863.75;;;5.06;100.00
9277;BME280;4676;42.678;23.244;2023-03-15T05:49:54;92849.00;;;4.96;100.00
9277;BME280;4676;42.678;23.244;2023-03-15T05:52:21;92872.50;;;5.17;100.00
9277;BME280;4676;42.678;23.244;2023-03-15T05:54:49;92865.72;;;5.19;100.00
9277;BME280;4676;42.678;23.244;2023-03-15T05:57:16;92864.63;;;5.25;98.43
9277;BME280;4676;42.678;23.244;2023-03-15T05:59:43;92865.13;;;5.34;97.98
9277;BME280;4676;42.678;23.244;2023-03-15T06:02:09;92864.03;;;5.40;98.94
9277;BME280;4676;42.678;23.244;2023-03-15T06:04:36;92869.56;;;5.48;98.58
9277;BME280;4676;42.678;23.244;2023-03-15T06:07:03;92867.75;;;5.72;93.68
9277;BME280;4676;42.678;23.244;2023-03-15T06:09:30;92876.41;;;5.86;89.87
9277;BME280;4676;42.678;23.244;2023-03-15T06:11:58;92872.44;;;6.01;86.47
9277;BME280;4676;42.678;23.244;2023-03-15T06:14:26;92878.19;;;6.03;84.84
9277;BME280;4676;42.678;23.244;2023-03-15T06:16:53;92885.16;;;6.17;81.33
9277;BME280;4676;42.678;23.244;2023-03-15T06:21:47;92874.34;;;6.33;77.46
9277;BME280;4676;42.678;23.244;2023-03-15T06:24:14;92885.44;;;6.48;75.50
9277;BME280;4676;42.678;23.244;2023-03-15T06:26:41;92887.78;;;6.52;73.40
9277;BME280;4676;42.678;23.244;2023-03-15T06:29:09;92887.16;;;6.66;66.96
9277;BME280;4676;42.678;23.244;2023-03-15T06:31:35;92867.78;;;6.49;65.61
9277;BME280;4676;42.678;23.244;2023-03-15T06:34:02;92877.56;;;6.56;65.30
9277;BME280;4676;42.678;23.244;2023-03-15T06:36:29;92867.50;;;6.37;63.93
9277;BME280;4676;42.678;23.244;2023-03-15T06:38:56;92879.75;;;6.26;65.58
9277;BME280;4676;42.678;23.244;2023-03-15T06:41:23;92883.53;;;6.34;64.53
9277;BME280;4676;42.678;23.244;2023-03-15T06:43:49;92879.50;;;6.50;63.58
9277;BME280;4676;42.678;23.244;2023-03-15T06:46:17;92871.31;;;6.64;65.34
9277;BME280;4676;42.678;23.244;2023-03-15T06:48:44;92863.63;;;6.86;63.14
9277;BME280;4676;42.678;23.244;2023-03-15T06:51:11;92879.44;;;7.07;61.92
9277;BME280;4676;42.678;23.244;2023-03-15T06:53:37;92871.63;;;7.30;61.73
9277;BME280;4676;42.678;23.244;2023-03-15T06:56:04;92875.44;;;7.38;60.63
9277;BME280;4676;42.678;23.244;2023-03-15T06:58:31;92886.94;;;7.25;59.80
9277;BME280;4676;42.678;23.244;2023-03-15T07:00:58;92882.22;;;7.36;59.45
9277;BME280;4676;42.678;23.244;2023-03-15T07:03:26;92879.81;;;7.52;58.42
9277;BME280;4676;42.678;23.244;2023-03-15T07:05:52;92862.84;;;7.38;57.90
9277;BME280;4676;42.678;23.244;2023-03-15T07:08:20;92861.84;;;7.41;58.39
9277;BME280;4676;42.678;23.244;2023-03-15T07:10:47;92865.13;;;7.60;56.33
9277;BME280;4676;42.678;23.244;2023-03-15T07:13:14;92870.53;;;7.70;55.78
9277;BME280;4676;42.678;23.244;2023-03-15T07:15:41;92864.66;;;7.86;55.89
9277;BME280;4676;42.678;23.244;2023-03-15T07:18:08;92860.75;;;7.81;55.93
9277;BME280;4676;42.678;23.244;2023-03-15T07:20:36;92870.31;;;7.74;56.06
9277;BME280;4676;42.678;23.244;2023-03-15T07:23:03;92864.06;;;7.47;55.54
9277;BME280;4676;42.678;23.244;2023-03-15T07:25:29;92876.69;;;7.47;55.81
9277;BME280;4676;42.678;23.244;2023-03-15T07:27:56;92880.63;;;7.52;56.31
9277;BME280;4676;42.678;23.244;2023-03-15T07:30:23;92866.75;;;7.61;56.00
9277;BME280;4676;42.678;23.244;2023-03-15T07:32:49;92866.69;;;7.80;55.49
9277;BME280;4676;42.678;23.244;2023-03-15T07:35:16;92855.56;;;7.84;56.16
9277;BME280;4676;42.678;23.244;2023-03-15T07:37:45;92847.91;;;7.85;55.07
9277;BME280;4676;42.678;23.244;2023-03-15T07:40:12;92862.66;;;7.93;55.49
9277;BME280;4676;42.678;23.244;2023-03-15T07:42:40;92857.84;;;8.06;54.77
9277;BME280;4676;42.678;23.244;2023-03-15T07:45:08;92857.50;;;8.12;54.86
9277;BME280;4676;42.678;23.244;2023-03-15T07:47:35;92858.00;;;8.35;54.43
9277;BME280;4676;42.678;23.244;2023-03-15T07:50:02;92862.47;;;8.30;53.94
9277;BME280;4676;42.678;23.244;2023-03-15T07:52:29;92857.19;;;8.18;54.27
9277;BME280;4676;42.678;23.244;2023-03-15T07:54:57;92846.09;;;8.04;54.09
9277;BME280;4676;42.678;23.244;2023-03-15T07:57:24;92841.72;;;8.08;54.66
9277;BME280;4676;42.678;23.244;2023-03-15T07:59:51;92851.34;;;8.17;54.44
9277;BME280;4676;42.678;23.244;2023-03-15T08:02:18;92846.78;;;8.24;54.17
9277;BME280;4676;42.678;23.244;2023-03-15T08:04:44;92846.28;;;8.17;54.08
9277;BME280;4676;42.678;23.244;2023-03-15T08:07:13;92849.84;;;8.30;54.75
9277;BME280;4676;42.678;23.244;2023-03-15T08:09:39;92851.81;;;8.41;53.70
9277;BME280;4676;42.678;23.244;2023-03-15T08:12:08;92856.06;;;8.40;53.28
9277;BME280;4676;42.678;23.244;2023-03-15T08:14:34;92846.72;;;8.58;52.71
9277;BME280;4676;42.678;23.244;2023-03-15T08:17:01;92834.56;;;8.49;52.94
9277;BME280;4676;42.678;23.244;2023-03-15T08:19:28;92831.56;;;8.58;52.98
9277;BME280;4676;42.678;23.244;2023-03-15T08:21:54;92814.06;;;8.71;52.56
9277;BME280;4676;42.678;23.244;2023-03-15T08:24:21;92838.88;;;8.94;51.90
9277;BME280;4676;42.678;23.244;2023-03-15T08:26:48;92836.75;;;9.18;52.32
9277;BME280;4676;42.678;23.244;2023-03-15T08:29:17;92843.06;;;9.40;50.98
9277;BME280;4676;42.678;23.244;2023-03-15T08:31:44;92834.28;;;9.62;51.62
9277;BME280;4676;42.678;23.244;2023-03-15T08:34:10;92803.88;;;9.47;51.06
9277;BME280;4676;42.678;23.244;2023-03-15T08:36:37;92826.53;;;9.79;50.67
9277;BME280;4676;42.678;23.244;2023-03-15T08:39:04;92826.69;;;9.62;50.83
9277;BME280;4676;42.678;23.244;2023-03-15T08:41:30;92806.84;;;9.40;50.95
9277;BME280;4676;42.678;23.244;2023-03-15T08:43:57;92806.56;;;9.30;50.80
9277;BME280;4676;42.678;23.244;2023-03-15T08:46:26;92781.19;;;9.32;51.22
9277;BME280;4676;42.678;23.244;2023-03-15T08:48:52;92805.81;;;9.58;52.04
9277;BME280;4676;42.678;23.244;2023-03-15T08:51:19;92811.72;;;9.43;51.32
9277;BME280;4676;42.678;23.244;2023-03-15T08:53:46;92802.56;;;9.56;52.78
9277;BME280;4676;42.678;23.244;2023-03-15T08:56:13;92806.56;;;9.60;52.06
9277;BME280;4676;42.678;23.244;2023-03-15T08:58:40;92810.75;;;9.45;52.05
9277;BME280;4676;42.678;23.244;2023-03-15T09:01:09;92806.94;;;9.38;52.41
9277;BME280;4676;42.678;23.244;2023-03-15T09:03:38;92793.50;;;9.38;53.18
9277;BME280;4676;42.678;23.244;2023-03-15T09:06:07;92800.94;;;9.55;54.22
9277;BME280;4676;42.678;23.244;2023-03-15T09:08:34;92806.25;;;9.94;53.32
9277;BME280;4676;42.678;23.244;2023-03-15T09:11:01;92812.78;;;10.27;51.71
9277;BME280;4676;42.678;23.244;2023-03-15T09:13:28;92802.63;;;9.98;50.63
9277;BME280;4676;42.678;23.244;2023-03-15T09:15:56;92808.59;;;10.12;50.78
9277;BME280;4676;42.678;23.244;2023-03-15T09:18:23;92803.78;;;10.07;51.07
9277;BME280;4676;42.678;23.244;2023-03-15T09:20:51;92810.47;;;9.94;51.27
9277;BME280;4676;42.678;23.244;2023-03-15T09:23:18;92810.84;;;9.88;51.60
9277;BME280;4676;42.678;23.244;2023-03-15T09:25:44;92796.09;;;9.80;51.41
9277;BME280;4676;42.678;23.244;2023-03-15T09:28:11;92817.50;;;9.89;51.45
9277;BME280;4676;42.678;23.244;2023-03-15T09:30:40;92812.56;;;10.01;52.54
9277;BME280;4676;42.678;23.244;2023-03-15T09:33:07;92815.63;;;10.07;52.12
9277;BME280;4676;42.678;23.244;2023-03-15T09:35:34;92813.63;;;10.27;52.83
9277;BME280;4676;42.678;23.244;2023-03-15T09:38:02;92811.22;;;10.52;51.58
9277;BME280;4676;42.678;23.244;2023-03-15T09:40:31;92813.28;;;10.74;51.18
9277;BME280;4676;42.678;23.244;2023-03-15T09:43:02;92797.41;;;10.85;51.20
9277;BME280;4676;42.678;23.244;2023-03-15T09:45:46;92792.28;;;10.99;50.40
9277;BME280;4676;42.678;23.244;2023-03-15T09:48:19;92792.09;;;11.02;49.81
9277;BME280;4676;42.678;23.244;2023-03-15T09:50:51;92791.09;;;10.78;49.21
9277;BME280;4676;42.678;23.244;2023-03-15T09:53:24;92784.09;;;10.81;50.34
9277;BME280;4676;42.678;23.244;2023-03-15T09:55:53;92759.50;;;10.83;51.81
9277;BME280;4676;42.678;23.244;2023-03-15T09:58:22;92790.19;;;11.06;50.28
9277;BME280;4676;42.678;23.244;2023-03-15T10:00:52;92794.16;;;11.10;49.71
9277;BME280;4676;42.678;23.244;2023-03-15T10:03:23;92793.25;;;11.11;51.46
9277;BME280;4676;42.678;23.244;2023-03-15T10:05:55;92795.41;;;10.90;49.17
9277;BME280;4676;42.678;23.244;2023-03-15T10:08:25;92804.63;;;10.91;49.46
9277;BME280;4676;42.678;23.244;2023-03-15T10:10:56;92794.81;;;10.72;49.64
9277;BME280;4676;42.678;23.244;2023-03-15T10:13:42;92778.56;;;10.62;51.13
9277;BME280;4676;42.678;23.244;2023-03-15T10:16:22;92791.91;;;10.78;49.87
9277;BME280;4676;42.678;23.244;2023-03-15T10:18:59;92801.31;;;10.90;50.47
9277;BME280;4676;42.678;23.244;2023-03-15T10:21:36;92797.38;;;10.99;49.31
9277;BME280;4676;42.678;23.244;2023-03-15T10:24:13;92788.34;;;11.22;49.20
9277;BME280;4676;42.678;23.244;2023-03-15T10:26:41;92791.16;;;11.57;50.28
9277;BME280;4676;42.678;23.244;2023-03-15T10:29:13;92784.72;;;11.90;49.89
9277;BME280;4676;42.678;23.244;2023-03-15T10:31:42;92782.97;;;12.16;48.59
9277;BME280;4676;42.678;23.244;2023-03-15T10:34:11;92780.44;;;11.78;47.18
9277;BME280;4676;42.678;23.244;2023-03-15T10:36:43;92777.78;;;11.67;48.64
9277;BME280;4676;42.678;23.244;2023-03-15T10:39:12;92782.53;;;11.59;48.39
9277;BME280;4676;42.678;23.244;2023-03-15T10:41:40;92790.69;;;11.37;47.90
9277;BME280;4676;42.678;23.244;2023-03-15T10:44:12;92773.63;;;11.27;49.01
9277;BME280;4676;42.678;23.244;2023-03-15T10:46:39;92790.25;;;11.18;48.41
9277;BME280;4676;42.678;23.244;2023-03-15T10:49:11;92774.13;;;10.92;49.54
9277;BME280;4676;42.678;23.244;2023-03-15T10:51:41;92778.66;;;10.87;49.28
9277;BME280;4676;42.678;23.244;2023-03-15T10:54:14;92783.69;;;11.01;49.91
9277;BME280;4676;42.678;23.244;2023-03-15T10:56:45;92797.28;;;11.00;49.47
9277;BME280;4676;42.678;23.244;2023-03-15T10:59:15;92794.75;;;11.00;49.09
9277;BME280;4676;42.678;23.244;2023-03-15T11:01:46;92788.47;;;11.06;49.36
9277;BME280;4676;42.678;23.244;2023-03-15T11:04:16;92783.63;;;11.16;49.40
9277;BME280;4676;42.678;23.244;2023-03-15T11:06:46;92787.47;;;11.09;49.97
9277;BME280;4676;42.678;23.244;2023-03-15T11:09:16;92788.47;;;11.06;49.61
9277;BME280;4676;42.678;23.244;2023-03-15T11:11:56;92790.56;;;10.99;50.35
9277;BME280;4676;42.678;23.244;2023-03-15T11:14:24;92784.25;;;10.92;52.10
9277;BME280;4676;42.678;23.244;2023-03-15T11:16:53;92775.97;;;10.90;53.32
9277;BME280;4676;42.678;23.244;2023-03-15T11:19:22;92780.00;;;10.93;56.12
9277;BME280;4676;42.678;23.244;2023-03-15T11:21:51;92778.91;;;10.97;59.74
9277;BME280;4676;42.678;23.244;2023-03-15T11:24:26;92788.28;;;10.82;60.44
9277;BME280;4676;42.678;23.244;2023-03-15T11:29:26;92786.97;;;10.48;69.55
9277;BME280;4676;42.678;23.244;2023-03-15T11:31:55;92788.28;;;10.27;73.47
9277;BME280;4676;42.678;23.244;2023-03-15T11:34:34;92791.47;;;10.31;77.00
9277;BME280;4676;42.678;23.244;2023-03-15T11:37:05;92775.16;;;10.21;76.71
9277;BME280;4676;42.678;23.244;2023-03-15T11:39:40;92767.41;;;10.24;79.98
9277;BME280;4676;42.678;23.244;2023-03-15T11:42:13;92760.97;;;10.18;75.33
9277;BME280;4676;42.678;23.244;2023-03-15T11:44:44;92769.72;;;10.13;75.72
9277;BME280;4676;42.678;23.244;2023-03-15T11:47:17;92760.25;;;10.02;78.00
9277;BME280;4676;42.678;23.244;2023-03-15T11:49:50;92758.69;;;9.99;81.85
9277;BME280;4676;42.678;23.244;2023-03-15T11:52:20;92762.41;;;10.08;82.22
9277;BME280;4676;42.678;23.244;2023-03-15T11:54:50;92762.81;;;10.16;83.68
9277;BME280;4676;42.678;23.244;2023-03-15T11:57:43;92754.38;;;10.30;80.68
9277;BME280;4676;42.678;23.244;2023-03-15T12:03:27;92756.97;;;10.42;78.36
9277;BME280;4676;42.678;23.244;2023-03-15T12:05:59;92756.06;;;10.43;78.82
9277;BME280;4676;42.678;23.244;2023-03-15T12:08:43;92757.88;;;10.41;81.96
9277;BME280;4676;42.678;23.244;2023-03-15T12:11:12;92759.06;;;10.36;84.56
9277;BME280;4676;42.678;23.244;2023-03-15T12:13:50;92745.06;;;10.30;86.29
9277;BME280;4676;42.678;23.244;2023-03-15T12:16:20;92751.72;;;10.31;81.50
9277;BME280;4676;42.678;23.244;2023-03-15T12:18:47;92737.81;;;10.24;81.99
9277;BME280;4676;42.678;23.244;2023-03-15T12:21:20;92745.78;;;10.32;81.15
9277;BME280;4676;42.678;23.244;2023-03-15T12:24:03;92747.94;;;10.24;73.35
9277;BME280;4676;42.678;23.244;2023-03-15T12:26:39;92741.47;;;10.20;72.80
9277;BME280;4676;42.678;23.244;2023-03-15T12:29:19;92746.53;;;10.20;71.56
9277;BME280;4676;42.678;23.244;2023-03-15T12:31:54;92751.28;;;10.11;67.67
9277;BME280;4676;42.678;23.244;2023-03-15T12:34:25;92738.38;;;10.01;68.17
9277;BME280;4676;42.678;23.244;2023-03-15T12:36:55;92736.09;;;9.82;66.64
9277;BME280;4676;42.678;23.244;2023-03-15T12:39:38;92711.34;;;9.87;68.83
9277;BME280;4676;42.678;23.244;2023-03-15T12:42:12;92721.91;;;9.94;68.30
9277;BME280;4676;42.678;23.244;2023-03-15T12:44:41;92729.59;;;9.92;66.28
9277;BME280;4676;42.678;23.244;2023-03-15T12:47:09;92728.31;;;9.85;65.44
9277;BME280;4676;42.678;23.244;2023-03-15T12:49:38;92733.69;;;9.81;66.06
9277;BME280;4676;42.678;23.244;2023-03-15T12:52:26;92728.50;;;9.82;66.28
9277;BME280;4676;42.678;23.244;2023-03-15T12:55:02;92725.91;;;9.84;64.66
9277;BME280;4676;42.678;23.244;2023-03-15T12:57:36;92737.09;;;9.80;65.71
9277;BME280;4676;42.678;23.244;2023-03-15T13:00:05;92724.19;;;9.70;63.84
9277;BME280;4676;42.678;23.244;2023-03-15T13:02:37;92717.75;;;9.65;64.16
9277;BME280;4676;42.678;23.244;2023-03-15T13:05:19;92725.97;;;9.54;64.19
9277;BME280;4676;42.678;23.244;2023-03-15T13:08:04;92725.53;;;9.62;65.29
9277;BME280;4676;42.678;23.244;2023-03-15T13:10:39;92720.09;;;9.53;62.49
9277;BME280;4676;42.678;23.244;2023-03-15T13:13:47;92718.94;;;9.59;64.21
9277;BME280;4676;42.678;23.244;2023-03-15T13:16:25;92721.09;;;9.51;63.83
9277;BME280;4676;42.678;23.244;2023-03-15T13:18:59;92712.59;;;9.52;63.18
9277;BME280;4676;42.678;23.244;2023-03-15T13:21:33;92699.75;;;9.41;64.27
9277;BME280;4676;42.678;23.244;2023-03-15T13:24:04;92718.28;;;9.56;65.58
9277;BME280;4676;42.678;23.244;2023-03-15T13:26:42;92718.50;;;9.67;66.28
9277;BME280;4676;42.678;23.244;2023-03-15T13:29:14;92733.56;;;9.68;67.09
9277;BME280;4676;42.678;23.244;2023-03-15T13:31:42;92730.06;;;9.71;66.56
9277;BME280;4676;42.678;23.244;2023-03-15T13:34:12;92732.09;;;9.64;67.00
9277;BME280;4676;42.678;23.244;2023-03-15T13:36:41;92728.69;;;9.65;66.81
9277;BME280;4676;42.678;23.244;2023-03-15T13:39:15;92728.22;;;9.59;67.18